sensor_id;sensor_type;location;lat;lon;timestamp;temperature;humidity
7014;DHT22;3547;50.774;12.918;2023-02-04T00:01:10;2.60;33.60
7014;DHT22;3547;50.774;12.918;2023-02-04T00:03:36;2.50;58.40
7014;DHT22;3547;50.774;12.918;2023-02-04T00:06:03;2.60;1.00
7014;DHT22;3547;50.774;12.918;2023-02-04T00:08:29;2.60;99.90
7014;DHT22;3547;50.774;12.918;2023-02-04T00:10:55;2.60;1.00
7014;DHT22;3547;50.774;12.918;2023-02-04T00:13:21;2.60;99.90
7014;DHT22;3547;50.774;12.918;2023-02-04T00:15:47;2.60;1.00
7014;DHT22;3547;50.774;12.918;2023-02-04T00:18:13;2.60;99.90
7014;DHT22;3547;50.774;12.918;2023-02-04T00:20:39;2.60;60.20
7014;DHT22;3547;50.774;12.918;2023-02-04T00:23:05;2.70;89.40
7014;DHT22;3547;50.774;12.918;2023-02-04T00:25:31;2.70;1.00
7014;DHT22;3547;50.774;12.918;2023-02-04T00:27:58;2.70;1.00
7014;DHT22;3547;50.774;12.918;2023-02-04T00:30:24;2.70;99.90
7014;DHT22;3547;50.774;12.918;2023-02-04T00:32:50;2.80;24.20
7014;DHT22;3547;50.774;12.918;2023-02-04T00:35:20;2.80;99.90
7014;DHT22;3547;50.774;12.918;2023-02-04T00:37:46;2.80;99.90
7014;DHT22;3547;50.774;12.918;2023-02-04T00:40:12;2.90;66.10
7014;DHT22;3547;50.774;12.918;2023-02-04T00:42:38;2.90;1.00
7014;DHT22;3547;50.774;12.918;2023-02-04T00:45:05;2.90;16.80
7014;DHT22;3547;50.774;12.918;2023-02-04T00:47:31;2.90;1.00
7014;DHT22;3547;50.774;12.918;2023-02-04T00:49:57;2.80;30.90
7014;DHT22;3547;50.774;12.918;2023-02-04T00:52:23;2.60;3.30
7014;DHT22;3547;50.774;12.918;2023-02-04T00:54:49;2.50;51.60
7014;DHT22;3547;50.774;12.918;2023-02-04T00:57:15;2.40;38.00
7014;DHT22;3547;50.774;12.918;2023-02-04T00:59:42;2.40;31.60
7014;DHT22;3547;50.774;12.918;2023-02-04T01:02:08;2.40;66.20
7014;DHT22;3547;50.774;12.918;2023-02-04T01:04:34;2.10;30.80
7014;DHT22;3547;50.774;12.918;2023-02-04T01:07:00;2.20;1.00
7014;DHT22;3547;50.774;12.918;2023-02-04T01:09:26;2.10;1.00
7014;DHT22;3547;50.774;12.918;2023-02-04T01:11:52;1.90;70.70
7014;DHT22;3547;50.774;12.918;2023-02-04T01:14:19;1.90;52.50
7014;DHT22;3547;50.774;12.918;2023-02-04T01:16:45;1.70;1.00
7014;DHT22;3547;50.774;12.918;2023-02-04T01:19:11;1.60;36.20
7014;DHT22;3547;50.774;12.918;2023-02-04T01:21:37;1.30;1.00
7014;DHT22;3547;50.774;12.918;2023-02-04T01:24:04;1.30;20.40
7014;DHT22;3547;50.774;12.918;2023-02-04T01:26:30;1.30;99.90
7014;DHT22;3547;50.774;12.918;2023-02-04T01:28:56;1.10;99.90
7014;DHT22;3547;50.774;12.918;2023-02-04T01:31:22;1.20;1.00
7014;DHT22;3547;50.774;12.918;2023-02-04T01:33:48;1.20;39.30
7014;DHT22;3547;50.774;12.918;2023-02-04T01:36:14;1.20;78.50
7014;DHT22;3547;50.774;12.918;2023-02-04T01:38:49;1.20;99.90
7014;DHT22;3547;50.774;12.918;2023-02-04T01:41:16;1.30;2.60
7014;DHT22;3547;50.774;12.918;2023-02-04T01:43:46;1.20;99.90
7014;DHT22;3547;50.774;12.918;2023-02-04T01:46:13;1.10;99.90
7014;DHT22;3547;50.774;12.918;2023-02-04T01:48:40;1.10;1.00
7014;DHT22;3547;50.774;12.918;2023-02-04T01:51:12;1.10;1.00
7014;DHT22;3547;50.774;12.918;2023-02-04T01:53:40;1.10;1.00
7014;DHT22;3547;50.774;12.918;2023-02-04T01:56:18;1.20;94.90
7014;DHT22;3547;50.774;12.918;2023-02-04T01:58:46;1.20;19.20
7014;DHT22;3547;50.774;12.918;2023-02-04T02:01:14;1.20;99.90
7014;DHT22;3547;50.774;12.918;2023-02-04T02:03:41;1.20;99.90
7014;DHT22;3547;50.774;12.918;2023-02-04T02:06:08;1.30;1.00
7014;DHT22;3547;50.774;12.918;2023-02-04T02:08:35;1.30;24.30
7014;DHT22;3547;50.774;12.918;2023-02-04T02:11:02;1.30;28.40
7014;DHT22;3547;50.774;12.918;2023-02-04T02:13:28;1.40;1.00
7014;DHT22;3547;50.774;12.918;2023-02-04T02:15:54;1.20;1.00
7014;DHT22;3547;50.774;12.918;2023-02-04T02:18:21;1.20;1.00
7014;DHT22;3547;50.774;12.918;2023-02-04T02:20:47;1.30;12.50
7014;DHT22;3547;50.774;12.918;2023-02-04T02:25:48;1.20;1.00
7014;DHT22;3547;50.774;12.918;2023-02-04T02:28:17;1.20;1.00
7014;DHT22;3547;50.774;12.918;2023-02-04T02:30:45;1.10;99.90
7014;DHT22;3547;50.774;12.918;2023-02-04T02:33:15;1.10;46.00
7014;DHT22;3547;50.774;12.918;2023-02-04T02:35:43;1.10;61.60
7014;DHT22;3547;50.774;12.918;2023-02-04T02:38:14;1.00;9.20
7014;DHT22;3547;50.774;12.918;2023-02-04T02:40:41;1.00;1.00
7014;DHT22;3547;50.774;12.918;2023-02-04T02:43:30;0.90;1.00
7014;DHT22;3547;50.774;12.918;2023-02-04T02:45:59;0.90;1.00
7014;DHT22;3547;50.774;12.918;2023-02-04T02:48:26;0.90;1.00
7014;DHT22;3547;50.774;12.918;2023-02-04T02:50:52;0.90;12.10
7014;DHT22;3547;50.774;12.918;2023-02-04T02:53:19;0.90;1.00
7014;DHT22;3547;50.774;12.918;2023-02-04T02:55:47;0.90;18.80
7014;DHT22;3547;50.774;12.918;2023-02-04T02:58:28;0.90;13.40
7014;DHT22;3547;50.774;12.918;2023-02-04T03:00:57;0.90;6.30
7014;DHT22;3547;50.774;12.918;2023-02-04T03:03:30;0.90;10.20
7014;DHT22;3547;50.774;12.918;2023-02-04T03:06:04;0.90;23.40
7014;DHT22;3547;50.774;12.918;2023-02-04T03:08:31;0.80;1.00
7014;DHT22;3547;50.774;12.918;2023-02-04T03:10:57;0.80;24.50
7014;DHT22;3547;50.774;12.918;2023-02-04T03:13:24;0.90;43.80
7014;DHT22;3547;50.774;12.918;2023-02-04T03:15:51;0.80;14.30
7014;DHT22;3547;50.774;12.918;2023-02-04T03:18:19;0.80;1.00
7014;DHT22;3547;50.774;12.918;2023-02-04T03:20:47;0.80;1.00
7014;DHT22;3547;50.774;12.918;2023-02-04T03:23:13;0.80;1.00
7014;DHT22;3547;50.774;12.918;2023-02-04T03:25:40;0.70;1.00
7014;DHT22;3547;50.774;12.918;2023-02-04T03:28:06;0.80;1.00
7014;DHT22;3547;50.774;12.918;2023-02-04T03:30:32;0.80;7.80
7014;DHT22;3547;50.774;12.918;2023-02-04T03:32:58;0.80;1.40
7014;DHT22;3547;50.774;12.918;2023-02-04T03:35:24;0.80;1.00
7014;DHT22;3547;50.774;12.918;2023-02-04T03:37:50;0.80;1.50
7014;DHT22;3547;50.774;12.918;2023-02-04T03:40:17;0.80;3.50
7014;DHT22;3547;50.774;12.918;2023-02-04T03:42:43;0.80;16.90
7014;DHT22;3547;50.774;12.918;2023-02-04T03:48:31;0.80;50.40
7014;DHT22;3547;50.774;12.918;2023-02-04T03:50:57;0.80;83.40
7014;DHT22;3547;50.774;12.918;2023-02-04T03:53:23;0.80;99.90
7014;DHT22;3547;50.774;12.918;2023-02-04T03:55:50;0.70;95.50
7014;DHT22;3547;50.774;12.918;2023-02-04T03:58:16;0.60;99.90
7014;DHT22;3547;50.774;12.918;2023-02-04T04:00:42;0.60;98.50
7014;DHT22;3547;50.774;12.918;2023-02-04T04:03:08;0.60;99.90
7014;DHT22;3547;50.774;12.918;2023-02-04T04:05:34;0.60;99.90
7014;DHT22;3547;50.774;12.918;2023-02-04T04:08:00;0.60;99.90
7014;DHT22;3547;50.774;12.918;2023-02-04T04:10:27;0.60;99.20
7014;DHT22;3547;50.774;12.918;2023-02-04T04:12:54;0.70;99.90
7014;DHT22;3547;50.774;12.918;2023-02-04T04:15:20;0.70;99.90
7014;DHT22;3547;50.774;12.918;2023-02-04T04:17:46;0.60;93.70
7014;DHT22;3547;50.774;12.918;2023-02-04T04:20:12;0.60;11.60
7014;DHT22;3547;50.774;12.918;2023-02-04T04:22:38;0.50;1.00
7014;DHT22;3547;50.774;12.918;2023-02-04T04:25:05;0.50;9.40
7014;DHT22;3547;50.774;12.918;2023-02-04T04:27:31;0.50;1.00
7014;DHT22;3547;50.774;12.918;2023-02-04T04:29:58;0.50;1.00
7014;DHT22;3547;50.774;12.918;2023-02-04T04:32:24;0.50;1.00
7014;DHT22;3547;50.774;12.918;2023-02-04T04:34:50;0.50;1.00
7014;DHT22;3547;50.774;12.918;2023-02-04T04:37:16;0.50;1.00
7014;DHT22;3547;50.774;12.918;2023-02-04T04:39:42;0.50;1.00
7014;DHT22;3547;50.774;12.918;2023-02-04T04:42:08;0.40;1.00
7014;DHT22;3547;50.774;12.918;2023-02-04T04:44:34;0.50;1.00
7014;DHT22;3547;50.774;12.918;2023-02-04T04:47:00;0.50;1.00
7014;DHT22;3547;50.774;12.918;2023-02-04T04:49:28;0.60;13.50
7014;DHT22;3547;50.774;12.918;2023-02-04T04:51:54;0.50;1.00
7014;DHT22;3547;50.774;12.918;2023-02-04T04:54:20;0.60;2.00
7014;DHT22;3547;50.774;12.918;2023-02-04T04:56:46;0.60;1.00
7014;DHT22;3547;50.774;12.918;2023-02-04T04:59:12;0.70;11.90
7014;DHT22;3547;50.774;12.918;2023-02-04T05:01:38;0.70;1.00
7014;DHT22;3547;50.774;12.918;2023-02-04T05:04:04;0.60;1.00
7014;DHT22;3547;50.774;12.918;2023-02-04T05:06:30;0.60;1.00
7014;DHT22;3547;50.774;12.918;2023-02-04T05:08:56;0.70;5.60
7014;DHT22;3547;50.774;12.918;2023-02-04T05:11:22;0.50;1.00
7014;DHT22;3547;50.774;12.918;2023-02-04T05:13:49;0.60;1.00
7014;DHT22;3547;50.774;12.918;2023-02-04T05:16:15;0.60;1.00
7014;DHT22;3547;50.774;12.918;2023-02-04T05:18:42;0.70;1.00
7014;DHT22;3547;50.774;12.918;2023-02-04T05:21:08;0.70;1.00
7014;DHT22;3547;50.774;12.918;2023-02-04T05:23:34;0.70;1.00
7014;DHT22;3547;50.774;12.918;2023-02-04T05:26:00;0.60;1.00
7014;DHT22;3547;50.774;12.918;2023-02-04T05:28:26;0.60;1.00
7014;DHT22;3547;50.774;12.918;2023-02-04T05:30:52;0.60;1.00
7014;DHT22;3547;50.774;12.918;2023-02-04T05:33:18;0.60;1.00
7014;DHT22;3547;50.774;12.918;2023-02-04T05:35:45;0.50;99.90
7014;DHT22;3547;50.774;12.918;2023-02-04T05:38:11;0.50;1.00
7014;DHT22;3547;50.774;12.918;2023-02-04T05:40:37;0.60;1.00
7014;DHT22;3547;50.774;12.918;2023-02-04T05:43:03;0.60;1.00
7014;DHT22;3547;50.774;12.918;2023-02-04T05:45:30;0.50;1.00
7014;DHT22;3547;50.774;12.918;2023-02-04T05:47:56;0.60;1.00
7014;DHT22;3547;50.774;12.918;2023-02-04T05:50:22;0.60;1.00
7014;DHT22;3547;50.774;12.918;2023-02-04T05:52:48;0.60;1.00
7014;DHT22;3547;50.774;12.918;2023-02-04T05:55:44;0.50;99.90
7014;DHT22;3547;50.774;12.918;2023-02-04T05:58:10;0.50;99.90
7014;DHT22;3547;50.774;12.918;2023-02-04T06:00:36;0.50;99.90
7014;DHT22;3547;50.774;12.918;2023-02-04T06:03:02;0.60;1.00
7014;DHT22;3547;50.774;12.918;2023-02-04T06:05:28;0.60;1.00
7014;DHT22;3547;50.774;12.918;2023-02-04T06:07:54;0.60;99.90
7014;DHT22;3547;50.774;12.918;2023-02-04T06:10:21;0.60;99.90
7014;DHT22;3547;50.774;12.918;2023-02-04T06:12:47;0.50;1.00
7014;DHT22;3547;50.774;12.918;2023-02-04T06:15:13;0.60;1.00
7014;DHT22;3547;50.774;12.918;2023-02-04T06:17:40;0.60;1.00
7014;DHT22;3547;50.774;12.918;2023-02-04T06:20:06;0.60;1.00
7014;DHT22;3547;50.774;12.918;2023-02-04T06:22:33;0.50;99.90
7014;DHT22;3547;50.774;12.918;2023-02-04T06:24:59;0.50;99.90
7014;DHT22;3547;50.774;12.918;2023-02-04T06:27:25;0.50;99.90
7014;DHT22;3547;50.774;12.918;2023-02-04T06:29:52;0.50;99.90
7014;DHT22;3547;50.774;12.918;2023-02-04T06:32:19;0.40;99.90
7014;DHT22;3547;50.774;12.918;2023-02-04T06:34:46;0.40;99.90
7014;DHT22;3547;50.774;12.918;2023-02-04T06:37:12;0.50;1.00
7014;DHT22;3547;50.774;12.918;2023-02-04T06:39:40;0.50;99.90
7014;DHT22;3547;50.774;12.918;2023-02-04T06:42:06;0.40;99.90
7014;DHT22;3547;50.774;12.918;2023-02-04T06:44:32;0.40;99.90
7014;DHT22;3547;50.774;12.918;2023-02-04T06:46:58;0.40;99.90
7014;DHT22;3547;50.774;12.918;2023-02-04T06:49:25;0.40;99.90
7014;DHT22;3547;50.774;12.918;2023-02-04T06:51:51;0.40;99.90
7014;DHT22;3547;50.774;12.918;2023-02-04T06:54:17;0.30;99.90
7014;DHT22;3547;50.774;12.918;2023-02-04T06:56:43;0.40;1.00
7014;DHT22;3547;50.774;12.918;2023-02-04T06:59:10;0.40;1.00
7014;DHT22;3547;50.774;12.918;2023-02-04T07:01:36;0.30;99.90
7014;DHT22;3547;50.774;12.918;2023-02-04T07:04:02;0.30;99.90
7014;DHT22;3547;50.774;12.918;2023-02-04T07:06:28;0.30;99.90
7014;DHT22;3547;50.774;12.918;2023-02-04T07:08:54;0.20;99.90
7014;DHT22;3547;50.774;12.918;2023-02-04T07:11:20;0.30;99.90
7014;DHT22;3547;50.774;12.918;2023-02-04T07:13:46;0.30;99.90
7014;DHT22;3547;50.774;12.918;2023-02-04T07:16:13;0.30;1.00
7014;DHT22;3547;50.774;12.918;2023-02-04T07:18:39;0.30;99.90
7014;DHT22;3547;50.774;12.918;2023-02-04T07:21:05;0.40;99.90
7014;DHT22;3547;50.774;12.918;2023-02-04T07:23:31;0.30;99.90
7014;DHT22;3547;50.774;12.918;2023-02-04T07:25:57;0.40;99.90
7014;DHT22;3547;50.774;12.918;2023-02-04T07:28:24;0.40;1.00
7014;DHT22;3547;50.774;12.918;2023-02-04T07:30:50;0.40;99.90
7014;DHT22;3547;50.774;12.918;2023-02-04T07:33:16;0.40;99.90
7014;DHT22;3547;50.774;12.918;2023-02-04T07:35:43;0.40;1.00
7014;DHT22;3547;50.774;12.918;2023-02-04T07:38:09;0.50;1.00
7014;DHT22;3547;50.774;12.918;2023-02-04T07:40:35;0.40;99.90
7014;DHT22;3547;50.774;12.918;2023-02-04T07:43:01;0.50;1.00
7014;DHT22;3547;50.774;12.918;2023-02-04T07:48:50;0.60;1.00
7014;DHT22;3547;50.774;12.918;2023-02-04T07:51:16;0.60;1.00
7014;DHT22;3547;50.774;12.918;2023-02-04T07:53:42;0.60;99.90
7014;DHT22;3547;50.774;12.918;2023-02-04T07:56:09;0.60;99.90
7014;DHT22;3547;50.774;12.918;2023-02-04T07:58:35;0.70;1.00
7014;DHT22;3547;50.774;12.918;2023-02-04T08:01:01;0.70;1.00
7014;DHT22;3547;50.774;12.918;2023-02-04T08:03:27;0.70;99.90
7014;DHT22;3547;50.774;12.918;2023-02-04T08:05:53;0.60;99.90
7014;DHT22;3547;50.774;12.918;2023-02-04T08:08:19;0.70;99.90
7014;DHT22;3547;50.774;12.918;2023-02-04T08:10:45;0.70;99.90
7014;DHT22;3547;50.774;12.918;2023-02-04T08:13:12;0.70;99.90
7014;DHT22;3547;50.774;12.918;2023-02-04T08:15:38;0.80;99.90
7014;DHT22;3547;50.774;12.918;2023-02-04T08:18:04;0.90;99.90
7014;DHT22;3547;50.774;12.918;2023-02-04T08:20:31;0.90;99.90
7014;DHT22;3547;50.774;12.918;2023-02-04T08:22:57;0.90;99.90
7014;DHT22;3547;50.774;12.918;2023-02-04T08:25:23;0.80;99.90
7014;DHT22;3547;50.774;12.918;2023-02-04T08:27:49;0.70;99.90
7014;DHT22;3547;50.774;12.918;2023-02-04T08:30:15;0.60;99.90
7014;DHT22;3547;50.774;12.918;2023-02-04T08:32:42;0.70;99.90
7014;DHT22;3547;50.774;12.918;2023-02-04T08:35:08;0.60;99.90
7014;DHT22;3547;50.774;12.918;2023-02-04T08:37:34;0.80;99.90
7014;DHT22;3547;50.774;12.918;2023-02-04T08:40:00;0.80;99.90
7014;DHT22;3547;50.774;12.918;2023-02-04T08:42:27;0.80;99.90
7014;DHT22;3547;50.774;12.918;2023-02-04T08:44:54;0.70;99.90
7014;DHT22;3547;50.774;12.918;2023-02-04T08:47:20;0.80;99.90
7014;DHT22;3547;50.774;12.918;2023-02-04T08:49:46;0.90;99.90
7014;DHT22;3547;50.774;12.918;2023-02-04T08:52:12;1.00;99.90
7014;DHT22;3547;50.774;12.918;2023-02-04T08:54:38;1.10;99.90
7014;DHT22;3547;50.774;12.918;2023-02-04T08:57:04;1.00;99.90
7014;DHT22;3547;50.774;12.918;2023-02-04T08:59:30;1.00;99.90
7014;DHT22;3547;50.774;12.918;2023-02-04T09:01:57;0.90;99.90
7014;DHT22;3547;50.774;12.918;2023-02-04T09:04:23;1.00;99.90
7014;DHT22;3547;50.774;12.918;2023-02-04T09:06:50;1.10;99.90
7014;DHT22;3547;50.774;12.918;2023-02-04T09:09:20;1.20;99.90
7014;DHT22;3547;50.774;12.918;2023-02-04T09:11:46;1.30;99.90
7014;DHT22;3547;50.774;12.918;2023-02-04T09:14:12;1.50;99.90
7014;DHT22;3547;50.774;12.918;2023-02-04T09:16:38;1.50;99.90
7014;DHT22;3547;50.774;12.918;2023-02-04T09:19:05;1.40;95.90
7014;DHT22;3547;50.774;12.918;2023-02-04T09:21:34;1.20;49.30
7014;DHT22;3547;50.774;12.918;2023-02-04T09:24:00;1.40;99.90
7014;DHT22;3547;50.774;12.918;2023-02-04T09:26:26;1.50;99.90
7014;DHT22;3547;50.774;12.918;2023-02-04T09:28:52;1.40;72.30
7014;DHT22;3547;50.774;12.918;2023-02-04T09:31:18;1.30;99.90
7014;DHT22;3547;50.774;12.918;2023-02-04T09:33:44;1.30;99.90
7014;DHT22;3547;50.774;12.918;2023-02-04T09:36:11;1.30;94.20
7014;DHT22;3547;50.774;12.918;2023-02-04T09:38:37;1.10;73.00
7014;DHT22;3547;50.774;12.918;2023-02-04T09:41:06;0.90;79.60
7014;DHT22;3547;50.774;12.918;2023-02-04T09:43:35;0.80;89.10
7014;DHT22;3547;50.774;12.918;2023-02-04T09:46:03;0.90;80.30
7014;DHT22;3547;50.774;12.918;2023-02-04T09:48:30;1.10;99.10
7014;DHT22;3547;50.774;12.918;2023-02-04T09:51:05;1.00;61.50
7014;DHT22;3547;50.774;12.918;2023-02-04T09:53:34;0.90;68.70
7014;DHT22;3547;50.774;12.918;2023-02-04T09:56:01;0.80;73.20
7014;DHT22;3547;50.774;12.918;2023-02-04T09:58:32;0.90;92.80
7014;DHT22;3547;50.774;12.918;2023-02-04T10:01:08;1.00;63.90
7014;DHT22;3547;50.774;12.918;2023-02-04T10:03:35;1.10;85.20
7014;DHT22;3547;50.774;12.918;2023-02-04T10:06:01;1.20;95.60
7014;DHT22;3547;50.774;12.918;2023-02-04T10:08:28;1.30;91.10
7014;DHT22;3547;50.774;12.918;2023-02-04T10:10:56;1.30;97.50
7014;DHT22;3547;50.774;12.918;2023-02-04T10:13:29;1.40;95.80
7014;DHT22;3547;50.774;12.918;2023-02-04T10:15:56;1.10;43.90
7014;DHT22;3547;50.774;12.918;2023-02-04T10:18:30;1.30;90.00
7014;DHT22;3547;50.774;12.918;2023-02-04T10:23:40;1.20;66.00
7014;DHT22;3547;50.774;12.918;2023-02-04T10:26:12;1.20;92.20
7014;DHT22;3547;50.774;12.918;2023-02-04T10:28:39;1.10;32.20
7014;DHT22;3547;50.774;12.918;2023-02-04T10:31:10;1.00;16.80
7014;DHT22;3547;50.774;12.918;2023-02-04T10:34:11;1.10;42.00
7014;DHT22;3547;50.774;12.918;2023-02-04T10:36:41;1.40;59.10
7014;DHT22;3547;50.774;12.918;2023-02-04T10:39:15;1.60;33.10
7014;DHT22;3547;50.774;12.918;2023-02-04T10:44:13;2.20;90.60
7014;DHT22;3547;50.774;12.918;2023-02-04T10:46:40;2.30;1.00
7014;DHT22;3547;50.774;12.918;2023-02-04T10:49:23;2.10;1.00
7014;DHT22;3547;50.774;12.918;2023-02-04T10:51:50;2.10;41.70
7014;DHT22;3547;50.774;12.918;2023-02-04T10:54:22;2.30;28.20
7014;DHT22;3547;50.774;12.918;2023-02-04T10:57:13;2.00;1.00
7014;DHT22;3547;50.774;12.918;2023-02-04T10:59:42;2.30;48.40
7014;DHT22;3547;50.774;12.918;2023-02-04T11:07:58;2.30;17.30
7014;DHT22;3547;50.774;12.918;2023-02-04T11:10:31;2.30;1.00
7014;DHT22;3547;50.774;12.918;2023-02-04T11:12:59;2.10;1.00
7014;DHT22;3547;50.774;12.918;2023-02-04T11:15:44;2.10;1.00
7014;DHT22;3547;50.774;12.918;2023-02-04T11:18:24;2.00;1.00
7014;DHT22;3547;50.774;12.918;2023-02-04T11:20:57;2.00;1.00
7014;DHT22;3547;50.774;12.918;2023-02-04T11:26:17;1.90;1.00
7014;DHT22;3547;50.774;12.918;2023-02-04T11:41:54;2.10;1.00
7014;DHT22;3547;50.774;12.918;2023-02-04T11:44:21;2.20;1.00
7014;DHT22;3547;50.774;12.918;2023-02-04T11:46:52;2.40;1.00
7014;DHT22;3547;50.774;12.918;2023-02-04T11:49:22;2.30;1.00
7014;DHT22;3547;50.774;12.918;2023-02-04T11:51:49;2.60;1.00
7014;DHT22;3547;50.774;12.918;2023-02-04T11:54:17;2.60;1.00
7014;DHT22;3547;50.774;12.918;2023-02-04T11:56:46;2.70;1.00
7014;DHT22;3547;50.774;12.918;2023-02-04T11:59:14;2.80;1.00
7014;DHT22;3547;50.774;12.918;2023-02-04T12:01:42;2.80;1.00
7014;DHT22;3547;50.774;12.918;2023-02-04T12:04:22;2.50;1.00
7014;DHT22;3547;50.774;12.918;2023-02-04T12:06:57;2.50;1.00
7014;DHT22;3547;50.774;12.918;2023-02-04T12:09:27;2.60;1.00
7014;DHT22;3547;50.774;12.918;2023-02-04T12:12:01;2.60;1.00
7014;DHT22;3547;50.774;12.918;2023-02-04T12:14:37;2.60;1.00
7014;DHT22;3547;50.774;12.918;2023-02-04T12:17:18;2.70;1.00
7014;DHT22;3547;50.774;12.918;2023-02-04T12:19:45;3.10;1.00
7014;DHT22;3547;50.774;12.918;2023-02-04T12:22:11;3.40;1.00
7014;DHT22;3547;50.774;12.918;2023-02-04T12:24:41;3.20;1.00
7014;DHT22;3547;50.774;12.918;2023-02-04T12:27:08;2.70;1.00
7014;DHT22;3547;50.774;12.918;2023-02-04T12:29:34;2.50;1.00
7014;DHT22;3547;50.774;12.918;2023-02-04T12:32:01;2.40;1.00
7014;DHT22;3547;50.774;12.918;2023-02-04T12:34:27;2.30;1.00
7014;DHT22;3547;50.774;12.918;2023-02-04T12:36:53;2.40;1.00
7014;DHT22;3547;50.774;12.918;2023-02-04T12:39:20;2.40;1.00
7014;DHT22;3547;50.774;12.918;2023-02-04T12:41:46;2.50;1.00
7014;DHT22;3547;50.774;12.918;2023-02-04T12:44:12;2.60;1.00
7014;DHT22;3547;50.774;12.918;2023-02-04T12:46:40;2.70;1.00
7014;DHT22;3547;50.774;12.918;2023-02-04T12:49:06;2.80;1.00
7014;DHT22;3547;50.774;12.918;2023-02-04T12:51:33;3.00;1.00
7014;DHT22;3547;50.774;12.918;2023-02-04T12:54:00;2.90;1.00
7014;DHT22;3547;50.774;12.918;2023-02-04T12:56:26;3.00;1.00
7014;DHT22;3547;50.774;12.918;2023-02-04T12:58:52;2.90;1.00
7014;DHT22;3547;50.774;12.918;2023-02-04T13:01:21;2.90;1.00
7014;DHT22;3547;50.774;12.918;2023-02-04T13:03:50;3.40;1.00
7014;DHT22;3547;50.774;12.918;2023-02-04T13:06:20;3.70;1.00
7014;DHT22;3547;50.774;12.918;2023-02-04T13:08:48;3.60;1.00
7014;DHT22;3547;50.774;12.918;2023-02-04T13:11:14;3.10;1.00
7014;DHT22;3547;50.774;12.918;2023-02-04T13:13:40;2.70;1.00
7014;DHT22;3547;50.774;12.918;2023-02-04T13:16:06;2.60;1.00
7014;DHT22;3547;50.774;12.918;2023-02-04T13:18:32;2.50;1.00
7014;DHT22;3547;50.774;12.918;2023-02-04T13:20:58;2.30;1.00
7014;DHT22;3547;50.774;12.918;2023-02-04T13:23:25;2.30;1.00
7014;DHT22;3547;50.774;12.918;2023-02-04T13:25:51;2.30;1.00
7014;DHT22;3547;50.774;12.918;2023-02-04T13:28:17;2.50;1.00
7014;DHT22;3547;50.774;12.918;2023-02-04T13:30:43;2.60;1.00
7014;DHT22;3547;50.774;12.918;2023-02-04T13:33:09;2.60;1.00
7014;DHT22;3547;50.774;12.918;2023-02-04T13:35:35;2.50;1.00
7014;DHT22;3547;50.774;12.918;2023-02-04T13:38:01;2.40;1.00
7014;DHT22;3547;50.774;12.918;2023-02-04T13:40:27;2.40;1.00
7014;DHT22;3547;50.774;12.918;2023-02-04T13:42:53;2.40;1.00
7014;DHT22;3547;50.774;12.918;2023-02-04T13:45:20;2.20;1.00
7014;DHT22;3547;50.774;12.918;2023-02-04T13:47:46;2.20;1.00
7014;DHT22;3547;50.774;12.918;2023-02-04T13:50:15;2.20;1.00
7014;DHT22;3547;50.774;12.918;2023-02-04T13:52:41;2.10;1.00
7014;DHT22;3547;50.774;12.918;2023-02-04T13:55:07;2.10;1.00
7014;DHT22;3547;50.774;12.918;2023-02-04T13:57:33;2.00;1.00
7014;DHT22;3547;50.774;12.918;2023-02-04T14:00:03;2.00;1.00
7014;DHT22;3547;50.774;12.918;2023-02-04T14:02:29;2.00;1.00
7014;DHT22;3547;50.774;12.918;2023-02-04T14:04:55;2.40;1.00
7014;DHT22;3547;50.774;12.918;2023-02-04T14:07:22;2.50;1.00
7014;DHT22;3547;50.774;12.918;2023-02-04T14:09:48;2.50;1.00
7014;DHT22;3547;50.774;12.918;2023-02-04T14:12:15;2.50;1.00
7014;DHT22;3547;50.774;12.918;2023-02-04T14:14:41;2.40;1.00
7014;DHT22;3547;50.774;12.918;2023-02-04T14:17:07;2.10;1.00
7014;DHT22;3547;50.774;12.918;2023-02-04T14:19:33;2.00;1.00
7014;DHT22;3547;50.774;12.918;2023-02-04T14:21:59;2.20;1.00
7014;DHT22;3547;50.774;12.918;2023-02-04T14:24:25;2.40;1.00
7014;DHT22;3547;50.774;12.918;2023-02-04T14:26:51;2.50;1.00
7014;DHT22;3547;50.774;12.918;2023-02-04T14:29:17;2.50;1.00
7014;DHT22;3547;50.774;12.918;2023-02-04T14:31:44;2.50;1.00
7014;DHT22;3547;50.774;12.918;2023-02-04T14:34:10;2.40;1.00
7014;DHT22;3547;50.774;12.918;2023-02-04T14:36:36;2.30;1.00
7014;DHT22;3547;50.774;12.918;2023-02-04T14:39:02;2.20;1.00
7014;DHT22;3547;50.774;12.918;2023-02-04T14:41:28;2.20;1.00
7014;DHT22;3547;50.774;12.918;2023-02-04T14:43:56;2.20;1.00
7014;DHT22;3547;50.774;12.918;2023-02-04T14:46:22;2.30;1.00
7014;DHT22;3547;50.774;12.918;2023-02-04T14:48:48;2.30;1.00
7014;DHT22;3547;50.774;12.918;2023-02-04T14:51:17;2.30;1.00
7014;DHT22;3547;50.774;12.918;2023-02-04T14:53:44;2.30;1.00
7014;DHT22;3547;50.774;12.918;2023-02-04T14:56:11;2.20;1.00
7014;DHT22;3547;50.774;12.918;2023-02-04T14:58:37;2.20;1.00
7014;DHT22;3547;50.774;12.918;2023-02-04T15:01:04;2.30;1.00
7014;DHT22;3547;50.774;12.918;2023-02-04T15:03:30;2.30;1.00
7014;DHT22;3547;50.774;12.918;2023-02-04T15:05:56;2.30;1.00
7014;DHT22;3547;50.774;12.918;2023-02-04T15:08:22;2.30;1.00
7014;DHT22;3547;50.774;12.918;2023-02-04T15:10:48;2.20;1.00
7014;DHT22;3547;50.774;12.918;2023-02-04T15:13:15;2.20;1.00
7014;DHT22;3547;50.774;12.918;2023-02-04T15:15:41;2.20;1.00
7014;DHT22;3547;50.774;12.918;2023-02-04T15:18:07;2.20;1.00
7014;DHT22;3547;50.774;12.918;2023-02-04T15:20:33;2.10;1.00
7014;DHT22;3547;50.774;12.918;2023-02-04T15:22:59;2.10;1.00
7014;DHT22;3547;50.774;12.918;2023-02-04T15:25:25;2.00;1.00
7014;DHT22;3547;50.774;12.918;2023-02-04T15:27:51;1.90;1.00
7014;DHT22;3547;50.774;12.918;2023-02-04T15:30:17;1.90;1.00
7014;DHT22;3547;50.774;12.918;2023-02-04T15:32:44;1.80;1.00
7014;DHT22;3547;50.774;12.918;2023-02-04T15:35:12;1.70;1.00
7014;DHT22;3547;50.774;12.918;2023-02-04T15:37:38;1.60;1.00
7014;DHT22;3547;50.774;12.918;2023-02-04T15:40:05;1.60;1.00
7014;DHT22;3547;50.774;12.918;2023-02-04T15:42:31;1.60;1.00
7014;DHT22;3547;50.774;12.918;2023-02-04T15:44:58;1.60;1.00
7014;DHT22;3547;50.774;12.918;2023-02-04T15:47:24;1.60;1.00
7014;DHT22;3547;50.774;12.918;2023-02-04T15:49:50;1.70;1.00
7014;DHT22;3547;50.774;12.918;2023-02-04T15:52:16;1.60;1.00
7014;DHT22;3547;50.774;12.918;2023-02-04T15:54:42;1.70;1.00
7014;DHT22;3547;50.774;12.918;2023-02-04T15:57:08;1.60;1.00
7014;DHT22;3547;50.774;12.918;2023-02-04T15:59:34;1.60;1.00
7014;DHT22;3547;50.774;12.918;2023-02-04T16:02:00;1.50;1.00
7014;DHT22;3547;50.774;12.918;2023-02-04T16:04:26;1.40;1.00
7014;DHT22;3547;50.774;12.918;2023-02-04T16:06:52;1.30;1.00
7014;DHT22;3547;50.774;12.918;2023-02-04T16:09:18;1.20;1.00
7014;DHT22;3547;50.774;12.918;2023-02-04T16:11:44;1.10;1.00
7014;DHT22;3547;50.774;12.918;2023-02-04T16:14:11;1.10;1.00
7014;DHT22;3547;50.774;12.918;2023-02-04T16:16:37;1.00;1.00
7014;DHT22;3547;50.774;12.918;2023-02-04T16:19:03;1.00;1.00
7014;DHT22;3547;50.774;12.918;2023-02-04T16:21:29;1.00;1.00
7014;DHT22;3547;50.774;12.918;2023-02-04T16:23:55;1.00;1.00
7014;DHT22;3547;50.774;12.918;2023-02-04T16:26:21;1.10;1.00
7014;DHT22;3547;50.774;12.918;2023-02-04T16:28:47;1.10;1.00
7014;DHT22;3547;50.774;12.918;2023-02-04T16:31:14;1.10;1.00
7014;DHT22;3547;50.774;12.918;2023-02-04T16:33:40;1.00;1.00
7014;DHT22;3547;50.774;12.918;2023-02-04T16:36:08;1.00;1.00
7014;DHT22;3547;50.774;12.918;2023-02-04T16:38:37;0.90;1.00
7014;DHT22;3547;50.774;12.918;2023-02-04T16:41:05;0.90;1.00
7014;DHT22;3547;50.774;12.918;2023-02-04T16:43:31;0.80;1.00
7014;DHT22;3547;50.774;12.918;2023-02-04T16:45:57;0.80;1.00
7014;DHT22;3547;50.774;12.918;2023-02-04T16:48:24;0.80;1.00